sensor_id;sensor_type;location;lat;lon;timestamp;pressure;altitude;pressure_sealevel;temperature;humidity
30421;BME280;17218;54.070;10.012;2024-03-02T00:01:17;100292.97;;;8.26;100.00
30421;BME280;17218;54.070;10.012;2024-03-02T00:03:44;100285.22;;;8.28;100.00
30421;BME280;17218;54.070;10.012;2024-03-02T00:06:10;100281.72;;;8.41;100.00
30421;BME280;17218;54.070;10.012;2024-03-02T00:08:39;100282.53;;;8.56;100.00
30421;BME280;17218;54.070;10.012;2024-03-02T00:11:05;100272.13;;;8.64;100.00
30421;BME280;17218;54.070;10.012;2024-03-02T00:13:32;100262.56;;;8.75;100.00
30421;BME280;17218;54.070;10.012;2024-03-02T00:16:00;100270.31;;;8.77;100.00
30421;BME280;17218;54.070;10.012;2024-03-02T00:18:30;100270.34;;;8.72;100.00
30421;BME280;17218;54.070;10.012;2024-03-02T00:20:57;100256.53;;;8.75;100.00
30421;BME280;17218;54.070;10.012;2024-03-02T00:23:24;100250.53;;;8.71;100.00
30421;BME280;17218;54.070;10.012;2024-03-02T00:25:55;100250.50;;;8.82;100.00
30421;BME280;17218;54.070;10.012;2024-03-02T00:28:23;100247.81;;;8.94;100.00
30421;BME280;17218;54.070;10.012;2024-03-02T00:30:54;100243.38;;;9.04;100.00
30421;BME280;17218;54.070;10.012;2024-03-02T00:33:21;100239.09;;;9.03;100.00
30421;BME280;17218;54.070;10.012;2024-03-02T00:35:48;100234.06;;;8.88;100.00
30421;BME280;17218;54.070;10.012;2024-03-02T00:38:15;100232.34;;;8.88;100.00
30421;BME280;17218;54.070;10.012;2024-03-02T00:40:42;100230.66;;;8.84;100.00
30421;BME280;17218;54.070;10.012;2024-03-02T00:43:28;100226.41;;;8.77;100.00
30421;BME280;17218;54.070;10.012;2024-03-02T00:46:00;100235.97;;;8.64;100.00
30421;BME280;17218;54.070;10.012;2024-03-02T00:48:26;100235.16;;;8.54;100.00
30421;BME280;17218;54.070;10.012;2024-03-02T00:50:53;100233.44;;;8.51;100.00
30421;BME280;17218;54.070;10.012;2024-03-02T00:53:23;100245.50;;;8.52;100.00
30421;BME280;17218;54.070;10.012;2024-03-02T00:55:50;100232.66;;;8.43;100.00
30421;BME280;17218;54.070;10.012;2024-03-02T00:58:18;100241.34;;;8.23;100.00
30421;BME280;17218;54.070;10.012;2024-03-02T01:00:44;100250.00;;;8.19;100.00
30421;BME280;17218;54.070;10.012;2024-03-02T01:03:12;100248.34;;;7.99;100.00
30421;BME280;17218;54.070;10.012;2024-03-02T01:05:41;100256.13;;;7.94;100.00
30421;BME280;17218;54.070;10.012;2024-03-02T01:08:07;100245.81;;;7.93;100.00
30421;BME280;17218;54.070;10.012;2024-03-02T01:10:34;100239.78;;;7.98;100.00
30421;BME280;17218;54.070;10.012;2024-03-02T01:13:00;100244.88;;;8.13;100.00
30421;BME280;17218;54.070;10.012;2024-03-02T01:15:28;100241.44;;;8.09;100.00
30421;BME280;17218;54.070;10.012;2024-03-02T01:17:55;100245.72;;;8.10;100.00
30421;BME280;17218;54.070;10.012;2024-03-02T01:20:21;100240.56;;;8.13;100.00
30421;BME280;17218;54.070;10.012;2024-03-02T01:22:48;100238.91;;;8.04;100.00
30421;BME280;17218;54.070;10.012;2024-03-02T01:25:14;100250.19;;;7.78;100.00
30421;BME280;17218;54.070;10.012;2024-03-02T01:27:41;100260.50;;;7.78;100.00
30421;BME280;17218;54.070;10.012;2024-03-02T01:30:08;100260.47;;;7.75;100.00
30421;BME280;17218;54.070;10.012;2024-03-02T01:32:37;100257.91;;;7.72;100.00
30421;BME280;17218;54.070;10.012;2024-03-02T01:35:04;100257.91;;;7.72;100.00
30421;BME280;17218;54.070;10.012;2024-03-02T01:37:32;100264.78;;;7.76;100.00
30421;BME280;17218;54.070;10.012;2024-03-02T01:39:58;100267.34;;;7.82;100.00
30421;BME280;17218;54.070;10.012;2024-03-02T01:42:25;100267.38;;;7.74;100.00
30421;BME280;17218;54.070;10.012;2024-03-02T01:44:51;100266.50;;;7.69;100.00
30421;BME280;17218;54.070;10.012;2024-03-02T01:47:18;100279.41;;;7.68;100.00
30421;BME280;17218;54.070;10.012;2024-03-02T01:49:45;100272.53;;;7.74;100.00
30421;BME280;17218;54.070;10.012;2024-03-02T01:52:12;100279.41;;;7.69;100.00
30421;BME280;17218;54.070;10.012;2024-03-02T01:54:38;100278.56;;;7.66;100.00
30421;BME280;17218;54.070;10.012;2024-03-02T01:57:05;100270.00;;;7.59;100.00
30421;BME280;17218;54.070;10.012;2024-03-02T01:59:32;100274.31;;;7.52;100.00
30421;BME280;17218;54.070;10.012;2024-03-02T02:01:58;100280.31;;;7.49;100.00
30421;BME280;17218;54.070;10.012;2024-03-02T02:04:25;100275.19;;;7.45;100.00
30421;BME280;17218;54.070;10.012;2024-03-02T02:06:54;100278.63;;;7.47;100.00
30421;BME280;17218;54.070;10.012;2024-03-02T02:09:20;100279.47;;;7.38;100.00
30421;BME280;17218;54.070;10.012;2024-03-02T02:11:47;100282.06;;;7.44;100.00
30421;BME280;17218;54.070;10.012;2024-03-02T02:14:14;100270.88;;;7.44;100.00
30421;BME280;17218;54.070;10.012;2024-03-02T02:16:40;100275.16;;;7.42;100.00
30421;BME280;17218;54.070;10.012;2024-03-02T02:19:07;100270.84;;;7.53;100.00
30421;BME280;17218;54.070;10.012;2024-03-02T02:21:35;100263.09;;;7.64;100.00
30421;BME280;17218;54.070;10.012;2024-03-02T02:24:02;100262.19;;;7.84;100.00
30421;BME280;17218;54.070;10.012;2024-03-02T02:26:29;100253.59;;;7.79;100.00
30421;BME280;17218;54.070;10.012;2024-03-02T02:28:55;100254.50;;;7.73;100.00
30421;BME280;17218;54.070;10.012;2024-03-02T02:31:22;100249.34;;;7.68;100.00
30421;BME280;17218;54.070;10.012;2024-03-02T02:33:48;100244.19;;;7.73;100.00
30421;BME280;17218;54.070;10.012;2024-03-02T02:36:15;100251.97;;;7.49;100.00
30421;BME280;17218;54.070;10.012;2024-03-02T02:38:44;100250.22;;;7.69;100.00
30421;BME280;17218;54.070;10.012;2024-03-02T02:41:12;100258.78;;;7.75;100.00
30421;BME280;17218;54.070;10.012;2024-03-02T02:43:38;100252.72;;;7.83;100.00
30421;BME280;17218;54.070;10.012;2024-03-02T02:46:05;100248.41;;;7.93;100.00
30421;BME280;17218;54.070;10.012;2024-03-02T02:48:32;100245.84;;;7.86;100.00
30421;BME280;17218;54.070;10.012;2024-03-02T02:50:58;100249.28;;;7.82;100.00
30421;BME280;17218;54.070;10.012;2024-03-02T02:53:25;100239.91;;;7.64;100.00
30421;BME280;17218;54.070;10.012;2024-03-02T02:55:52;100249.38;;;7.56;100.00
30421;BME280;17218;54.070;10.012;2024-03-02T02:58:19;100248.56;;;7.43;100.00
30421;BME280;17218;54.070;10.012;2024-03-02T03:00:45;100260.56;;;7.34;100.00
30421;BME280;17218;54.070;10.012;2024-03-02T03:03:12;100265.75;;;7.20;100.00
30421;BME280;17218;54.070;10.012;2024-03-02T03:05:38;100266.66;;;7.08;100.00
30421;BME280;17218;54.070;10.012;2024-03-02T03:08:05;100264.06;;;7.08;100.00
30421;BME280;17218;54.070;10.012;2024-03-02T03:10:31;100264.06;;;7.02;100.00
30421;BME280;17218;54.070;10.012;2024-03-02T03:12:59;100268.34;;;7.09;100.00
30421;BME280;17218;54.070;10.012;2024-03-02T03:15:26;100269.22;;;7.11;100.00
30421;BME280;17218;54.070;10.012;2024-03-02T03:17:52;100275.22;;;6.95;100.00
30421;BME280;17218;54.070;10.012;2024-03-02T03:20:19;100267.50;;;7.04;100.00
30421;BME280;17218;54.070;10.012;2024-03-02T03:22:46;100263.19;;;6.94;100.00
30421;BME280;17218;54.070;10.012;2024-03-02T03:25:13;100270.06;;;6.99;100.00
30421;BME280;17218;54.070;10.012;2024-03-02T03:27:39;100261.47;;;7.14;100.00
30421;BME280;17218;54.070;10.012;2024-03-02T03:30:09;100261.47;;;7.24;100.00
30421;BME280;17218;54.070;10.012;2024-03-02T03:32:35;100270.91;;;7.25;100.00
30421;BME280;17218;54.070;10.012;2024-03-02T03:35:02;100258.88;;;7.24;100.00
30421;BME280;17218;54.070;10.012;2024-03-02T03:37:29;100264.91;;;7.16;100.00
30421;BME280;17218;54.070;10.012;2024-03-02T03:39:58;100259.75;;;7.24;100.00
30421;BME280;17218;54.070;10.012;2024-03-02T03:42:24;100257.16;;;7.37;100.00
30421;BME280;17218;54.070;10.012;2024-03-02T03:44:51;100266.63;;;7.32;100.00
30421;BME280;17218;54.070;10.012;2024-03-02T03:47:19;100259.72;;;7.46;100.00
30421;BME280;17218;54.070;10.012;2024-03-02T03:49:45;100257.16;;;7.35;100.00
30421;BME280;17218;54.070;10.012;2024-03-02T03:52:12;100264.88;;;7.46;100.00
30421;BME280;17218;54.070;10.012;2024-03-02T03:54:38;100258.00;;;7.47;100.00
30421;BME280;17218;54.070;10.012;2024-03-02T03:57:05;100257.16;;;7.32;100.00
30421;BME280;17218;54.070;10.012;2024-03-02T03:59:31;100259.75;;;7.34;100.00
30421;BME280;17218;54.070;10.012;2024-03-02T04:01:58;100264.88;;;7.40;100.00
30421;BME280;17218;54.070;10.012;2024-03-02T04:11:10;100258.84;;;7.36;100.00
30421;BME280;17218;54.070;10.012;2024-03-02T04:13:36;100254.56;;;7.37;100.00
30421;BME280;17218;54.070;10.012;2024-03-02T04:16:03;100248.53;;;7.38;100.00
30421;BME280;17218;54.070;10.012;2024-03-02T04:18:30;100239.06;;;7.56;100.00
30421;BME280;17218;54.070;10.012;2024-03-02T04:20:57;100233.81;;;7.81;100.00
30421;BME280;17218;54.070;10.012;2024-03-02T04:23:24;100215.78;;;7.84;100.00
30421;BME280;17218;54.070;10.012;2024-03-02T04:25:50;100209.66;;;8.04;100.00
30421;BME280;17218;54.070;10.012;2024-03-02T04:28:18;100195.78;;;8.23;100.00
30421;BME280;17218;54.070;10.012;2024-03-02T04:30:45;100186.34;;;8.18;100.00
30421;BME280;17218;54.070;10.012;2024-03-02T04:33:11;100190.66;;;8.16;100.00
30421;BME280;17218;54.070;10.012;2024-03-02T04:35:38;100197.59;;;8.06;100.00
30421;BME280;17218;54.070;10.012;2024-03-02T04:38:04;100196.00;;;7.83;100.00
30421;BME280;17218;54.070;10.012;2024-03-02T04:40:31;100199.53;;;7.58;100.00
30421;BME280;17218;54.070;10.012;2024-03-02T04:42:58;100192.63;;;7.62;100.00
30421;BME280;17218;54.070;10.012;2024-03-02T04:45:26;100194.28;;;7.83;100.00
30421;BME280;17218;54.070;10.012;2024-03-02T04:47:52;100183.91;;;7.96;100.00
30421;BME280;17218;54.070;10.012;2024-03-02T04:50:19;100173.63;;;7.91;100.00
30421;BME280;17218;54.070;10.012;2024-03-02T04:52:45;100182.19;;;7.92;100.00
30421;BME280;17218;54.070;10.012;2024-03-02T04:55:12;100202.84;;;7.95;100.00
30421;BME280;17218;54.070;10.012;2024-03-02T04:58:10;100207.97;;;7.96;100.00
30421;BME280;17218;54.070;10.012;2024-03-02T05:00:38;100224.41;;;7.78;100.00
30421;BME280;17218;54.070;10.012;2024-03-02T05:03:04;100227.03;;;7.58;100.00
30421;BME280;17218;54.070;10.012;2024-03-02T05:05:31;100223.63;;;7.42;100.00
30421;BME280;17218;54.070;10.012;2024-03-02T05:07:57;100240.00;;;7.22;100.00
30421;BME280;17218;54.070;10.012;2024-03-02T05:10:24;100245.16;;;7.15;100.00
30421;BME280;17218;54.070;10.012;2024-03-02T05:12:50;100252.03;;;7.15;100.00
30421;BME280;17218;54.070;10.012;2024-03-02T05:15:22;100252.03;;;7.10;100.00
30421;BME280;17218;54.070;10.012;2024-03-02T05:17:50;100246.88;;;7.23;100.00
30421;BME280;17218;54.070;10.012;2024-03-02T05:20:16;100241.72;;;7.20;100.00
30421;BME280;17218;54.070;10.012;2024-03-02T05:22:43;100242.56;;;7.22;100.00
30421;BME280;17218;54.070;10.012;2024-03-02T05:25:09;100239.13;;;7.29;100.00
30421;BME280;17218;54.070;10.012;2024-03-02T05:27:36;100238.28;;;7.25;100.00
30421;BME280;17218;54.070;10.012;2024-03-02T05:30:04;100225.41;;;7.30;100.00
30421;BME280;17218;54.070;10.012;2024-03-02T05:32:33;100232.25;;;7.39;100.00
30421;BME280;17218;54.070;10.012;2024-03-02T05:35:00;100232.25;;;7.30;100.00
30421;BME280;17218;54.070;10.012;2024-03-02T05:37:28;100228.81;;;7.20;100.00
30421;BME280;17218;54.070;10.012;2024-03-02T05:39:54;100238.28;;;7.30;100.00
30421;BME280;17218;54.070;10.012;2024-03-02T05:42:21;100239.97;;;7.39;100.00
30421;BME280;17218;54.070;10.012;2024-03-02T05:44:47;100233.09;;;7.35;100.00
30421;BME280;17218;54.070;10.012;2024-03-02T05:47:14;100229.66;;;7.42;100.00
30421;BME280;17218;54.070;10.012;2024-03-02T05:49:40;100244.28;;;7.35;100.00
30421;BME280;17218;54.070;10.012;2024-03-02T05:52:09;100243.44;;;7.32;100.00
30421;BME280;17218;54.070;10.012;2024-03-02T05:54:36;100247.75;;;7.17;100.00
30421;BME280;17218;54.070;10.012;2024-03-02T05:57:03;100226.25;;;7.29;100.00
30421;BME280;17218;54.070;10.012;2024-03-02T05:59:47;100237.41;;;7.39;100.00
30421;BME280;17218;54.070;10.012;2024-03-02T06:02:13;100241.66;;;7.48;100.00
30421;BME280;17218;54.070;10.012;2024-03-02T06:04:40;100235.63;;;7.55;100.00
30421;BME280;17218;54.070;10.012;2024-03-02T06:07:06;100233.91;;;7.63;100.00
30421;BME280;17218;54.070;10.012;2024-03-02T06:09:34;100232.16;;;7.62;100.00
30421;BME280;17218;54.070;10.012;2024-03-02T06:12:01;100227.91;;;7.50;100.00
30421;BME280;17218;54.070;10.012;2024-03-02T06:14:27;100226.22;;;7.53;100.00
30421;BME280;17218;54.070;10.012;2024-03-02T06:16:53;100230.47;;;7.57;100.00
30421;BME280;17218;54.070;10.012;2024-03-02T06:19:21;100223.63;;;7.49;100.00
30421;BME280;17218;54.070;10.012;2024-03-02T06:21:47;100226.16;;;7.60;100.00
30421;BME280;17218;54.070;10.012;2024-03-02T06:24:14;100226.13;;;7.71;100.00
30421;BME280;17218;54.070;10.012;2024-03-02T06:26:42;100225.28;;;7.71;100.00
30421;BME280;17218;54.070;10.012;2024-03-02T06:29:08;100224.41;;;7.73;100.00
30421;BME280;17218;54.070;10.012;2024-03-02T06:31:35;100221.84;;;7.62;100.00
30421;BME280;17218;54.070;10.012;2024-03-02T06:34:01;100220.19;;;7.54;100.00
30421;BME280;17218;54.070;10.012;2024-03-02T06:36:28;100222.75;;;7.46;100.00
30421;BME280;17218;54.070;10.012;2024-03-02T06:38:55;100225.34;;;7.49;100.00
30421;BME280;17218;54.070;10.012;2024-03-02T06:41:21;100229.66;;;7.47;100.00
30421;BME280;17218;54.070;10.012;2024-03-02T06:43:49;100221.00;;;7.65;100.00
30421;BME280;17218;54.070;10.012;2024-03-02T06:46:19;100227.00;;;7.67;100.00
30421;BME280;17218;54.070;10.012;2024-03-02T06:48:46;100221.78;;;7.83;100.00
30421;BME280;17218;54.070;10.012;2024-03-02T06:51:12;100209.84;;;7.55;100.00
30421;BME280;17218;54.070;10.012;2024-03-02T06:53:40;100218.50;;;7.37;100.00
30421;BME280;17218;54.070;10.012;2024-03-02T06:56:07;100221.91;;;7.45;100.00
30421;BME280;17218;54.070;10.012;2024-03-02T06:58:33;100230.53;;;7.39;100.00
30421;BME280;17218;54.070;10.012;2024-03-02T07:01:01;100218.50;;;7.29;100.00
30421;BME280;17218;54.070;10.012;2024-03-02T07:03:27;100229.69;;;7.23;100.00
30421;BME280;17218;54.070;10.012;2024-03-02T07:05:56;100231.44;;;7.12;100.00
30421;BME280;17218;54.070;10.012;2024-03-02T07:08:22;100239.16;;;7.15;100.00
30421;BME280;17218;54.070;10.012;2024-03-02T07:10:49;100240.00;;;7.11;100.00
30421;BME280;17218;54.070;10.012;2024-03-02T07:13:15;100250.31;;;7.06;100.00
30421;BME280;17218;54.070;10.012;2024-03-02T07:15:42;100256.31;;;6.96;100.00
30421;BME280;17218;54.070;10.012;2024-03-02T07:18:37;100264.06;;;6.91;100.00
30421;BME280;17218;54.070;10.012;2024-03-02T07:21:07;100259.75;;;6.85;100.00
30421;BME280;17218;54.070;10.012;2024-03-02T07:23:34;100258.88;;;6.75;100.00
30421;BME280;17218;54.070;10.012;2024-03-02T07:26:00;100267.47;;;6.66;100.00
30421;BME280;17218;54.070;10.012;2024-03-02T07:28:27;100252.88;;;6.73;100.00
30421;BME280;17218;54.070;10.012;2024-03-02T07:30:58;100262.31;;;6.90;100.00
30421;BME280;17218;54.070;10.012;2024-03-02T07:33:25;100270.06;;;6.82;100.00
30421;BME280;17218;54.070;10.012;2024-03-02T07:35:53;100260.63;;;6.86;100.00
30421;BME280;17218;54.070;10.012;2024-03-02T07:38:20;100256.31;;;6.96;100.00
30421;BME280;17218;54.070;10.012;2024-03-02T07:40:47;100255.47;;;6.97;100.00
30421;BME280;17218;54.070;10.012;2024-03-02T07:43:15;100247.72;;;7.03;100.00
30421;BME280;17218;54.070;10.012;2024-03-02T07:45:42;100261.47;;;7.10;100.00
30421;BME280;17218;54.070;10.012;2024-03-02T07:48:08;100265.78;;;6.98;100.00
30421;BME280;17218;54.070;10.012;2024-03-02T07:50:35;100261.47;;;7.16;100.00
30421;BME280;17218;54.070;10.012;2024-03-02T07:53:04;100264.91;;;7.16;100.00
30421;BME280;17218;54.070;10.012;2024-03-02T07:55:31;100287.25;;;7.28;100.00
30421;BME280;17218;54.070;10.012;2024-03-02T07:57:57;100296.63;;;7.51;100.00
30421;BME280;17218;54.070;10.012;2024-03-02T08:00:24;100294.88;;;7.66;100.00
30421;BME280;17218;54.070;10.012;2024-03-02T08:02:51;100281.09;;;7.81;100.00
30421;BME280;17218;54.070;10.012;2024-03-02T08:05:18;100268.16;;;7.94;100.00
30421;BME280;17218;54.070;10.012;2024-03-02T08:07:45;100269.00;;;8.01;100.00
30421;BME280;17218;54.070;10.012;2024-03-02T08:10:13;100276.69;;;8.07;100.00
30421;BME280;17218;54.070;10.012;2024-03-02T08:12:40;100281.03;;;8.08;100.00
30421;BME280;17218;54.070;10.012;2024-03-02T08:15:07;100276.69;;;8.15;100.00
30421;BME280;17218;54.070;10.012;2024-03-02T08:17:33;100281.75;;;8.33;100.00
30421;BME280;17218;54.070;10.012;2024-03-02T08:20:00;100279.94;;;8.48;100.00
30421;BME280;17218;54.070;10.012;2024-03-02T08:22:27;100274.84;;;8.37;100.00
30421;BME280;17218;54.070;10.012;2024-03-02T08:24:54;100282.66;;;8.23;100.00
30421;BME280;17218;54.070;10.012;2024-03-02T08:27:22;100276.59;;;8.32;100.00
30421;BME280;17218;54.070;10.012;2024-03-02T08:29:48;100273.94;;;8.46;100.00
30421;BME280;17218;54.070;10.012;2024-03-02T08:32:14;100265.44;;;8.25;100.00
30421;BME280;17218;54.070;10.012;2024-03-02T08:34:42;100280.84;;;8.41;100.00
30421;BME280;17218;54.070;10.012;2024-03-02T08:37:09;100274.84;;;8.32;100.00
30421;BME280;17218;54.070;10.012;2024-03-02T08:39:35;100283.38;;;8.50;100.00
30421;BME280;17218;54.070;10.012;2024-03-02T08:42:02;100275.53;;;8.70;100.00
30421;BME280;17218;54.070;10.012;2024-03-02T08:44:31;100290.25;;;8.57;100.00
30421;BME280;17218;54.070;10.012;2024-03-02T08:46:58;100276.38;;;8.69;100.00
30421;BME280;17218;54.070;10.012;2024-03-02T08:49:25;100276.31;;;8.80;100.00
30421;BME280;17218;54.070;10.012;2024-03-02T08:51:51;100278.81;;;8.90;100.00
30421;BME280;17218;54.070;10.012;2024-03-02T08:54:19;100281.44;;;8.85;100.00
30421;BME280;17218;54.070;10.012;2024-03-02T08:56:46;100276.22;;;8.91;100.00
30421;BME280;17218;54.070;10.012;2024-03-02T08:59:12;100286.56;;;8.94;100.00
30421;BME280;17218;54.070;10.012;2024-03-02T09:01:40;100277.81;;;9.11;100.00
30421;BME280;17218;54.070;10.012;2024-03-02T09:04:07;100281.25;;;9.10;100.00
30421;BME280;17218;54.070;10.012;2024-03-02T09:06:34;100282.06;;;9.18;100.00
30421;BME280;17218;54.070;10.012;2024-03-02T09:09:01;100279.47;;;9.17;100.00
30421;BME280;17218;54.070;10.012;2024-03-02T09:11:28;100281.75;;;9.50;100.00
30421;BME280;17218;54.070;10.012;2024-03-02T09:13:54;100274.84;;;9.49;100.00
30421;BME280;17218;54.070;10.012;2024-03-02T09:16:21;100279.06;;;9.59;100.00
30421;BME280;17218;54.070;10.012;2024-03-02T09:18:49;100273.69;;;9.80;100.00
30421;BME280;17218;54.070;10.012;2024-03-02T09:21:16;100274.41;;;9.91;100.00
30421;BME280;17218;54.070;10.012;2024-03-02T09:23:42;100284.31;;;9.53;100.00
30421;BME280;17218;54.070;10.012;2024-03-02T09:26:10;100280.84;;;9.56;100.00
30421;BME280;17218;54.070;10.012;2024-03-02T09:28:37;100285.91;;;9.66;100.00
30421;BME280;17218;54.070;10.012;2024-03-02T09:31:03;100276.16;;;9.89;100.00
30421;BME280;17218;54.070;10.012;2024-03-02T09:33:30;100271.78;;;9.94;100.00
30421;BME280;17218;54.070;10.012;2024-03-02T09:35:58;100282.22;;;9.86;100.00
30421;BME280;17218;54.070;10.012;2024-03-02T09:38:24;100282.81;;;10.09;100.00
30421;BME280;17218;54.070;10.012;2024-03-02T09:40:51;100284.59;;;10.04;100.00
30421;BME280;17218;54.070;10.012;2024-03-02T09:43:18;100283.75;;;10.03;100.00
30421;BME280;17218;54.070;10.012;2024-03-02T09:45:44;100291.19;;;10.30;100.00
30421;BME280;17218;54.070;10.012;2024-03-02T09:48:11;100278.94;;;10.40;100.00
30421;BME280;17218;54.070;10.012;2024-03-02T09:50:38;100285.78;;;10.45;100.00
30421;BME280;17218;54.070;10.012;2024-03-02T09:53:07;100284.69;;;10.64;100.00
30421;BME280;17218;54.070;10.012;2024-03-02T09:55:33;100288.34;;;10.47;100.00
30421;BME280;17218;54.070;10.012;2024-03-02T09:58:00;100282.34;;;10.43;100.00
30421;BME280;17218;54.070;10.012;2024-03-02T10:00:26;100280.53;;;10.53;100.00
30421;BME280;17218;54.070;10.012;2024-03-02T10:02:53;100275.09;;;10.70;100.00
30421;BME280;17218;54.070;10.012;2024-03-02T10:05:23;100271.41;;;10.87;100.00
30421;BME280;17218;54.070;10.012;2024-03-02T10:07:59;100263.00;;;10.72;100.00
30421;BME280;17218;54.070;10.012;2024-03-02T10:10:35;100267.91;;;10.88;100.00
30421;BME280;17218;54.070;10.012;2024-03-02T10:13:05;100273.94;;;10.90;100.00
30421;BME280;17218;54.070;10.012;2024-03-02T10:15:32;100273.03;;;10.93;100.00
30421;BME280;17218;54.070;10.012;2024-03-02T10:17:59;100266.53;;;11.20;100.00
30421;BME280;17218;54.070;10.012;2024-03-02T10:20:26;100268.38;;;11.12;100.00
30421;BME280;17218;54.070;10.012;2024-03-02T10:22:54;100251.63;;;11.32;100.00
30421;BME280;17218;54.070;10.012;2024-03-02T10:25:32;100268.84;;;11.36;100.00
30421;BME280;17218;54.070;10.012;2024-03-02T10:28:00;100266.19;;;11.39;100.00
30421;BME280;17218;54.070;10.012;2024-03-02T10:30:27;100258.88;;;11.60;100.00
30421;BME280;17218;54.070;10.012;2024-03-02T10:32:55;100255.94;;;11.79;100.00
30421;BME280;17218;54.070;10.012;2024-03-02T10:35:21;100255.28;;;11.67;100.00
30421;BME280;17218;54.070;10.012;2024-03-02T10:37:49;100259.78;;;12.03;100.00
30421;BME280;17218;54.070;10.012;2024-03-02T10:40:15;100256.97;;;12.14;100.00
30421;BME280;17218;54.070;10.012;2024-03-02T10:42:44;100256.59;;;11.89;100.00
30421;BME280;17218;54.070;10.012;2024-03-02T10:45:12;100257.75;;;12.18;100.00
30421;BME280;17218;54.070;10.012;2024-03-02T10:47:41;100258.78;;;12.08;100.00
30421;BME280;17218;54.070;10.012;2024-03-02T10:50:08;100263.41;;;12.36;100.00
30421;BME280;17218;54.070;10.012;2024-03-02T10:52:35;100255.66;;;12.34;100.00
30421;BME280;17218;54.070;10.012;2024-03-02T10:55:02;100262.50;;;12.38;100.00
30421;BME280;17218;54.070;10.012;2024-03-02T10:57:33;100267.75;;;12.35;100.00
30421;BME280;17218;54.070;10.012;2024-03-02T11:00:06;100265.25;;;12.70;100.00
30421;BME280;17218;54.070;10.012;2024-03-02T11:02:41;100265.13;;;12.75;100.00
30421;BME280;17218;54.070;10.012;2024-03-02T11:05:10;100260.91;;;13.07;100.00
30421;BME280;17218;54.070;10.012;2024-03-02T11:07:38;100269.91;;;13.27;100.00
30421;BME280;17218;54.070;10.012;2024-03-02T11:10:05;100272.75;;;13.53;100.00
30421;BME280;17218;54.070;10.012;2024-03-02T11:12:36;100269.25;;;13.86;100.00
30421;BME280;17218;54.070;10.012;2024-03-02T11:15:10;100272.34;;;13.99;100.00
30421;BME280;17218;54.070;10.012;2024-03-02T11:17:38;100274.56;;;14.13;100.00
30421;BME280;17218;54.070;10.012;2024-03-02T11:20:07;100276.88;;;13.92;100.00
30421;BME280;17218;54.070;10.012;2024-03-02T11:22:35;100271.78;;;13.87;100.00
30421;BME280;17218;54.070;10.012;2024-03-02T11:25:03;100275.16;;;13.91;100.00
30421;BME280;17218;54.070;10.012;2024-03-02T11:27:59;100279.66;;;13.19;100.00
30421;BME280;17218;54.070;10.012;2024-03-02T11:30:51;100277.78;;;13.24;100.00
30421;BME280;17218;54.070;10.012;2024-03-02T11:33:27;100282.09;;;13.25;100.00
30421;BME280;17218;54.070;10.012;2024-03-02T11:35:55;100279.75;;;13.16;100.00
30421;BME280;17218;54.070;10.012;2024-03-02T11:38:22;100277.00;;;13.22;100.00
30421;BME280;17218;54.070;10.012;2024-03-02T11:40:50;100287.94;;;13.35;100.00
30421;BME280;17218;54.070;10.012;2024-03-02T11:43:16;100289.75;;;13.31;100.00
30421;BME280;17218;54.070;10.012;2024-03-02T11:45:43;100289.25;;;13.17;100.00
30421;BME280;17218;54.070;10.012;2024-03-02T11:48:13;100291.94;;;13.47;100.00
30421;BME280;17218;54.070;10.012;2024-03-02T11:50:41;100284.53;;;13.66;100.00
30421;BME280;17218;54.070;10.012;2024-03-02T11:53:09;100294.59;;;13.45;100.00
30421;BME280;17218;54.070;10.012;2024-03-02T11:55:38;100284.28;;;13.42;100.00
30421;BME280;17218;54.070;10.012;2024-03-02T11:58:06;100290.50;;;13.00;100.00
30421;BME280;17218;54.070;10.012;2024-03-02T12:00:33;100287.53;;;12.81;100.00
30421;BME280;17218;54.070;10.012;2024-03-02T12:03:00;100290.34;;;12.71;100.00
30421;BME280;17218;54.070;10.012;2024-03-02T12:05:28;100291.75;;;12.85;100.00
30421;BME280;17218;54.070;10.012;2024-03-02T12:07:56;100289.63;;;12.64;100.00
30421;BME280;17218;54.070;10.012;2024-03-02T12:10:23;100293.97;;;12.64;100.00
30421;BME280;17218;54.070;10.012;2024-03-02T12:12:55;100292.72;;;12.81;100.00
30421;BME280;17218;54.070;10.012;2024-03-02T12:15:23;100290.13;;;12.81;100.00
30421;BME280;17218;54.070;10.012;2024-03-02T12:17:53;100285.31;;;12.63;100.00
30421;BME280;17218;54.070;10.012;2024-03-02T12:20:19;100294.59;;;12.36;100.00
30421;BME280;17218;54.070;10.012;2024-03-02T12:22:47;100291.88;;;12.42;100.00
30421;BME280;17218;54.070;10.012;2024-03-02T12:25:15;100285.81;;;12.42;100.00
30421;BME280;17218;54.070;10.012;2024-03-02T12:27:42;100288.13;;;12.54;100.00
30421;BME280;17218;54.070;10.012;2024-03-02T12:30:09;100286.09;;;12.67;100.00
30421;BME280;17218;54.070;10.012;2024-03-02T12:32:37;100281.88;;;12.99;100.00
30421;BME280;17218;54.070;10.012;2024-03-02T12:35:05;100288.84;;;12.61;100.00
30421;BME280;17218;54.070;10.012;2024-03-02T12:37:31;100287.53;;;12.43;100.00
30421;BME280;17218;54.070;10.012;2024-03-02T12:40:00;100287.09;;;12.22;100.00
30421;BME280;17218;54.070;10.012;2024-03-02T12:42:26;100287.09;;;12.22;100.00
30421;BME280;17218;54.070;10.012;2024-03-02T12:44:53;100277.47;;;12.27;100.00
30421;BME280;17218;54.070;10.012;2024-03-02T12:47:20;100280.41;;;12.10;100.00